KLM88Y LKPR-EHAM
Flight info
| Callsign | KLM88Y |
|---|---|
| Flight time | 1h 8m |
| Altitude | 32000 |
| Route | BALTU DCT RAPET T843 DEMAB L604 RELBI L602 RKN |
| Aircraft | B738/M-SDE2E3FGHIJ1RWXY/LB2 |
Departure
| Time | 2026-05-04 12:17 |
|---|---|
| Airport | Václav Havel Airport Prague (LKPR) |
Arrival
| Time | 2026-05-04 13:25 |
|---|---|
| Airport | Amsterdam Airport Schiphol (EHAM) |
| Time | Latitude | Longitude | Altitude | Speed | Heading |
|---|---|---|---|---|---|
| 2026-05-04 11:39 | 50.10485 | 14.26476 | 1255 ft | 0 kts | 34° |
| 2026-05-04 12:04 | 50.10479 | 14.26470 | 1255 ft | 3 kts | 34° |
| 2026-05-04 12:04 | 50.10459 | 14.26450 | 1255 ft | 3 kts | 14° |
| 2026-05-04 12:04 | 50.10440 | 14.26460 | 1255 ft | 4 kts | 303° |
| 2026-05-04 12:04 | 50.10427 | 14.26491 | 1255 ft | 2 kts | 304° |
| 2026-05-04 12:05 | 50.10427 | 14.26492 | 1255 ft | 0 kts | 304° |
| 2026-05-04 12:09 | 50.10428 | 14.26489 | 1255 ft | 1 kts | 304° |
| 2026-05-04 12:09 | 50.10443 | 14.26454 | 1255 ft | 8 kts | 304° |
| 2026-05-04 12:09 | 50.10485 | 14.26358 | 1255 ft | 12 kts | 304° |
| 2026-05-04 12:10 | 50.10527 | 14.26250 | 1255 ft | 11 kts | 267° |
| 2026-05-04 12:10 | 50.10497 | 14.26176 | 1255 ft | 7 kts | 219° |
| 2026-05-04 12:10 | 50.10460 | 14.26140 | 1255 ft | 7 kts | 201° |
| 2026-05-04 12:10 | 50.10408 | 14.26170 | 1255 ft | 10 kts | 130° |
| 2026-05-04 12:11 | 50.10356 | 14.26277 | 1255 ft | 13 kts | 127° |
| 2026-05-04 12:11 | 50.10301 | 14.26390 | 1255 ft | 13 kts | 127° |
| 2026-05-04 12:11 | 50.10246 | 14.26504 | 1255 ft | 14 kts | 126° |
| 2026-05-04 12:11 | 50.10185 | 14.26631 | 1255 ft | 15 kts | 127° |
| 2026-05-04 12:12 | 50.10125 | 14.26753 | 1255 ft | 14 kts | 127° |
| 2026-05-04 12:12 | 50.10071 | 14.26867 | 1255 ft | 12 kts | 127° |
| 2026-05-04 12:12 | 50.10005 | 14.27003 | 1255 ft | 20 kts | 127° |
| 2026-05-04 12:12 | 50.09926 | 14.27166 | 1255 ft | 17 kts | 128° |
| 2026-05-04 12:13 | 50.09857 | 14.27307 | 1255 ft | 16 kts | 131° |
| 2026-05-04 12:14 | 50.09307 | 14.28152 | 1255 ft | 17 kts | 135° |
| 2026-05-04 12:15 | 50.09235 | 14.28260 | 1255 ft | 11 kts | 142° |
| 2026-05-04 12:15 | 50.09161 | 14.28276 | 1255 ft | 13 kts | 194° |
| 2026-05-04 12:15 | 50.09097 | 14.28208 | 1255 ft | 9 kts | 218° |
| 2026-05-04 12:15 | 50.09060 | 14.28161 | 1255 ft | 3 kts | 232° |
| 2026-05-04 12:16 | 50.09065 | 14.28130 | 1255 ft | 6 kts | 302° |
| 2026-05-04 12:16 | 50.09090 | 14.28077 | 1255 ft | 4 kts | 306° |
| 2026-05-04 12:16 | 50.09095 | 14.28065 | 1255 ft | 0 kts | 306° |
| 2026-05-04 12:16 | 50.09174 | 14.27903 | 1255 ft | 47 kts | 307° |
| 2026-05-04 12:17 | 50.09505 | 14.27217 | 1255 ft | 108 kts | 308° |
| 2026-05-04 12:17 | 50.10062 | 14.26073 | 1256 ft | 159 kts | 308° |
| 2026-05-04 12:17 | 50.10796 | 14.24573 | 1606 ft | 179 kts | 308° |
| 2026-05-04 12:17 | 50.11538 | 14.23010 | 2428 ft | 177 kts | 307° |
| 2026-05-04 12:18 | 50.12239 | 14.21440 | 3206 ft | 179 kts | 306° |
| 2026-05-04 12:18 | 50.13032 | 14.19763 | 3593 ft | 202 kts | 308° |
| 2026-05-04 12:18 | 50.13930 | 14.17907 | 3923 ft | 224 kts | 307° |
| 2026-05-04 12:18 | 50.14887 | 14.15932 | 4569 ft | 230 kts | 307° |
| 2026-05-04 12:19 | 50.15829 | 14.13985 | 5396 ft | 228 kts | 307° |
| 2026-05-04 12:19 | 50.16810 | 14.11959 | 5941 ft | 242 kts | 307° |
| 2026-05-04 12:19 | 50.17882 | 14.09742 | 6316 ft | 263 kts | 306° |
| 2026-05-04 12:19 | 50.18997 | 14.07438 | 6817 ft | 276 kts | 306° |
| 2026-05-04 12:20 | 50.20178 | 14.04995 | 7544 ft | 280 kts | 306° |
| 2026-05-04 12:20 | 50.21339 | 14.02583 | 8291 ft | 283 kts | 303° |
| 2026-05-04 12:20 | 50.22133 | 13.99775 | 9018 ft | 285 kts | 280° |
| 2026-05-04 12:20 | 50.22164 | 13.96714 | 9793 ft | 283 kts | 261° |
| 2026-05-04 12:21 | 50.21745 | 13.93668 | 10637 ft | 282 kts | 255° |
| 2026-05-04 12:21 | 50.21216 | 13.90723 | 11226 ft | 291 kts | 252° |
| 2026-05-04 12:21 | 50.20590 | 13.87627 | 11566 ft | 308 kts | 251° |
| 2026-05-04 12:21 | 50.19913 | 13.84353 | 11861 ft | 326 kts | 251° |
| 2026-05-04 12:22 | 50.19199 | 13.80931 | 12282 ft | 337 kts | 251° |
| 2026-05-04 12:22 | 50.18486 | 13.77404 | 12899 ft | 343 kts | 252° |
| 2026-05-04 12:22 | 50.17753 | 13.73828 | 13542 ft | 348 kts | 251° |
| 2026-05-04 12:22 | 50.17004 | 13.70222 | 14233 ft | 352 kts | 251° |
| 2026-05-04 12:23 | 50.16239 | 13.66582 | 14924 ft | 355 kts | 251° |
| 2026-05-04 12:23 | 50.15459 | 13.62905 | 15603 ft | 359 kts | 251° |
| 2026-05-04 12:23 | 50.14666 | 13.59188 | 16267 ft | 363 kts | 250° |
| 2026-05-04 12:23 | 50.13862 | 13.55434 | 16881 ft | 368 kts | 250° |
| 2026-05-04 12:24 | 50.13045 | 13.51634 | 17512 ft | 371 kts | 250° |
| 2026-05-04 12:24 | 50.12218 | 13.47799 | 18121 ft | 375 kts | 250° |
| 2026-05-04 12:24 | 50.11384 | 13.43936 | 18734 ft | 378 kts | 250° |
| 2026-05-04 12:24 | 50.10542 | 13.40040 | 19354 ft | 380 kts | 250° |
| 2026-05-04 12:25 | 50.09795 | 13.36087 | 19957 ft | 384 kts | 257° |
| 2026-05-04 12:25 | 50.09483 | 13.31927 | 20513 ft | 389 kts | 267° |
| 2026-05-04 12:25 | 50.09607 | 13.27710 | 21055 ft | 393 kts | 274° |
| 2026-05-04 12:25 | 50.09945 | 13.23462 | 21598 ft | 396 kts | 276° |
| 2026-05-04 12:26 | 50.10370 | 13.19194 | 22127 ft | 399 kts | 277° |
| 2026-05-04 12:26 | 50.10813 | 13.14910 | 22618 ft | 402 kts | 277° |
| 2026-05-04 12:26 | 50.11257 | 13.10601 | 23122 ft | 405 kts | 277° |
| 2026-05-04 12:26 | 50.11704 | 13.06250 | 23601 ft | 407 kts | 277° |
| 2026-05-04 12:27 | 50.12152 | 13.01877 | 24058 ft | 410 kts | 277° |
| 2026-05-04 12:27 | 50.12601 | 12.97477 | 24498 ft | 413 kts | 277° |
| 2026-05-04 12:27 | 50.13053 | 12.93045 | 24976 ft | 415 kts | 277° |
| 2026-05-04 12:27 | 50.13505 | 12.88588 | 25407 ft | 417 kts | 277° |
| 2026-05-04 12:28 | 50.13959 | 12.84112 | 25834 ft | 419 kts | 277° |
| 2026-05-04 12:28 | 50.14452 | 12.79623 | 26248 ft | 421 kts | 278° |
| 2026-05-04 12:28 | 50.14945 | 12.75110 | 26668 ft | 422 kts | 277° |
| 2026-05-04 12:28 | 50.15419 | 12.70591 | 27044 ft | 425 kts | 277° |
| 2026-05-04 12:29 | 50.15886 | 12.66026 | 27435 ft | 426 kts | 277° |
| 2026-05-04 12:29 | 50.16345 | 12.61452 | 27787 ft | 428 kts | 277° |
| 2026-05-04 12:29 | 50.16802 | 12.56856 | 28164 ft | 429 kts | 277° |
| 2026-05-04 12:29 | 50.17255 | 12.52254 | 28581 ft | 429 kts | 276° |
| 2026-05-04 12:30 | 50.17703 | 12.47677 | 29151 ft | 425 kts | 276° |
| 2026-05-04 12:30 | 50.17996 | 12.44670 | 29498 ft | 423 kts | 276° |
| 2026-05-04 12:30 | 50.18436 | 12.40158 | 30024 ft | 419 kts | 276° |
| 2026-05-04 12:30 | 50.18874 | 12.35670 | 30526 ft | 416 kts | 276° |
| 2026-05-04 12:31 | 50.19393 | 12.31240 | 30944 ft | 416 kts | 280° |
| 2026-05-04 12:31 | 50.20084 | 12.26843 | 31310 ft | 417 kts | 282° |
| 2026-05-04 12:31 | 50.20824 | 12.22454 | 31575 ft | 420 kts | 282° |
| 2026-05-04 12:31 | 50.21545 | 12.18033 | 31887 ft | 420 kts | 281° |
| 2026-05-04 12:32 | 50.22251 | 12.13607 | 32004 ft | 420 kts | 281° |
| 2026-05-04 12:32 | 50.23635 | 12.04754 | 32022 ft | 418 kts | 281° |
| 2026-05-04 12:33 | 50.25009 | 11.95933 | 32024 ft | 418 kts | 281° |
| 2026-05-04 12:33 | 50.26401 | 11.87113 | 32024 ft | 418 kts | 281° |
| 2026-05-04 12:34 | 50.27760 | 11.78304 | 32024 ft | 417 kts | 281° |
| 2026-05-04 12:34 | 50.29105 | 11.69494 | 32024 ft | 417 kts | 280° |
| 2026-05-04 12:35 | 50.30451 | 11.60661 | 32024 ft | 417 kts | 280° |
| 2026-05-04 12:35 | 50.31792 | 11.51853 | 32024 ft | 416 kts | 280° |
| 2026-05-04 12:36 | 50.34508 | 11.33433 | 32014 ft | 415 kts | 279° |
| 2026-05-04 12:37 | 50.35798 | 11.24605 | 32011 ft | 415 kts | 279° |
| 2026-05-04 12:37 | 50.37110 | 11.15795 | 32009 ft | 415 kts | 280° |
| 2026-05-04 12:38 | 50.38406 | 11.06995 | 32008 ft | 415 kts | 279° |
| 2026-05-04 12:38 | 50.39555 | 10.99022 | 32006 ft | 414 kts | 279° |
| 2026-05-04 12:39 | 50.40809 | 10.90217 | 31997 ft | 414 kts | 279° |
| 2026-05-04 12:39 | 50.42060 | 10.81384 | 31990 ft | 414 kts | 279° |
| 2026-05-04 12:40 | 50.43306 | 10.72569 | 31990 ft | 414 kts | 279° |
| 2026-05-04 12:40 | 50.44586 | 10.63746 | 31989 ft | 414 kts | 279° |
| 2026-05-04 12:41 | 50.45843 | 10.54999 | 31989 ft | 414 kts | 279° |
| 2026-05-04 12:41 | 50.47097 | 10.46195 | 31988 ft | 414 kts | 279° |
| 2026-05-04 12:42 | 50.48369 | 10.37384 | 31988 ft | 414 kts | 279° |
| 2026-05-04 12:42 | 50.49612 | 10.28532 | 31987 ft | 414 kts | 279° |
| 2026-05-04 12:43 | 50.50831 | 10.19691 | 31986 ft | 414 kts | 278° |
| 2026-05-04 12:43 | 50.52037 | 10.10851 | 31985 ft | 414 kts | 278° |
| 2026-05-04 12:44 | 50.53256 | 10.01988 | 31981 ft | 415 kts | 281° |
| 2026-05-04 12:44 | 50.55613 | 9.93636 | 31983 ft | 425 kts | 299° |
| 2026-05-04 12:45 | 50.59127 | 9.86115 | 31982 ft | 428 kts | 303° |
| 2026-05-04 12:45 | 50.62935 | 9.78870 | 31980 ft | 429 kts | 304° |
| 2026-05-04 12:46 | 50.66738 | 9.71646 | 31979 ft | 428 kts | 304° |
| 2026-05-04 12:46 | 50.70532 | 9.64404 | 31977 ft | 428 kts | 304° |
| 2026-05-04 12:47 | 50.74321 | 9.57152 | 31975 ft | 428 kts | 304° |
| 2026-05-04 12:47 | 50.78106 | 9.49888 | 31973 ft | 428 kts | 304° |
| 2026-05-04 12:48 | 50.81882 | 9.42612 | 31971 ft | 428 kts | 304° |
| 2026-05-04 12:48 | 50.85656 | 9.35317 | 31969 ft | 428 kts | 303° |
| 2026-05-04 12:49 | 50.89399 | 9.28061 | 31966 ft | 428 kts | 303° |
| 2026-05-04 12:49 | 50.93185 | 9.20715 | 31966 ft | 428 kts | 304° |
| 2026-05-04 12:50 | 50.96970 | 9.13501 | 31966 ft | 427 kts | 303° |
| 2026-05-04 12:50 | 51.00736 | 9.06200 | 31966 ft | 427 kts | 303° |
| 2026-05-04 12:51 | 51.04481 | 8.98873 | 31966 ft | 427 kts | 303° |
| 2026-05-04 12:51 | 51.08213 | 8.91535 | 31967 ft | 427 kts | 303° |
| 2026-05-04 12:52 | 51.11948 | 8.84182 | 31968 ft | 427 kts | 303° |
| 2026-05-04 12:52 | 51.15694 | 8.76841 | 31968 ft | 426 kts | 303° |
| 2026-05-04 12:53 | 51.19423 | 8.69493 | 31968 ft | 426 kts | 303° |
| 2026-05-04 12:53 | 51.23130 | 8.62127 | 31968 ft | 426 kts | 302° |
| 2026-05-04 12:54 | 51.26825 | 8.54750 | 31969 ft | 425 kts | 302° |
| 2026-05-04 12:54 | 51.30521 | 8.47359 | 31968 ft | 425 kts | 302° |
| 2026-05-04 12:55 | 51.34212 | 8.39996 | 31968 ft | 425 kts | 302° |
| 2026-05-04 12:55 | 51.37919 | 8.32622 | 31967 ft | 424 kts | 302° |
| 2026-05-04 12:56 | 51.41605 | 8.25256 | 31967 ft | 423 kts | 302° |
| 2026-05-04 12:56 | 51.45286 | 8.17873 | 31967 ft | 424 kts | 302° |
| 2026-05-04 12:57 | 51.48958 | 8.10483 | 31967 ft | 423 kts | 302° |
| 2026-05-04 12:57 | 51.52617 | 8.03098 | 31966 ft | 423 kts | 302° |
| 2026-05-04 12:58 | 51.56276 | 7.95769 | 31789 ft | 419 kts | 302° |
| 2026-05-04 12:58 | 51.58103 | 7.92118 | 31538 ft | 416 kts | 302° |
| 2026-05-04 12:58 | 51.59908 | 7.88496 | 31288 ft | 414 kts | 302° |
| 2026-05-04 12:58 | 51.61705 | 7.84880 | 31038 ft | 413 kts | 302° |
| 2026-05-04 12:59 | 51.63492 | 7.81272 | 30787 ft | 412 kts | 302° |
| 2026-05-04 12:59 | 51.65280 | 7.77655 | 30536 ft | 411 kts | 302° |
| 2026-05-04 12:59 | 51.67033 | 7.74100 | 30271 ft | 408 kts | 301° |
| 2026-05-04 12:59 | 51.68783 | 7.70546 | 29855 ft | 403 kts | 301° |
| 2026-05-04 13:00 | 51.70517 | 7.67016 | 29419 ft | 399 kts | 301° |
| 2026-05-04 13:00 | 51.72234 | 7.63515 | 28982 ft | 397 kts | 302° |
| 2026-05-04 13:00 | 51.73936 | 7.60039 | 28545 ft | 394 kts | 302° |
| 2026-05-04 13:00 | 51.75629 | 7.56577 | 28111 ft | 391 kts | 302° |
| 2026-05-04 13:01 | 51.77310 | 7.53134 | 27677 ft | 389 kts | 302° |
| 2026-05-04 13:01 | 51.78979 | 7.49711 | 27245 ft | 387 kts | 302° |
| 2026-05-04 13:01 | 51.80649 | 7.46280 | 26812 ft | 389 kts | 302° |
| 2026-05-04 13:01 | 51.82311 | 7.42861 | 26379 ft | 386 kts | 303° |
| 2026-05-04 13:02 | 51.83962 | 7.39462 | 25949 ft | 383 kts | 303° |
| 2026-05-04 13:02 | 51.85601 | 7.36081 | 25521 ft | 380 kts | 303° |
| 2026-05-04 13:02 | 51.87222 | 7.32734 | 25096 ft | 377 kts | 303° |
| 2026-05-04 13:02 | 51.88832 | 7.29405 | 24673 ft | 374 kts | 303° |
| 2026-05-04 13:03 | 51.90434 | 7.26089 | 24254 ft | 372 kts | 303° |
| 2026-05-04 13:03 | 51.92018 | 7.22807 | 23836 ft | 369 kts | 304° |
| 2026-05-04 13:03 | 51.93604 | 7.19562 | 23421 ft | 366 kts | 304° |
| 2026-05-04 13:03 | 51.95175 | 7.16326 | 23006 ft | 364 kts | 304° |
| 2026-05-04 13:04 | 51.96731 | 7.13099 | 22592 ft | 362 kts | 304° |
| 2026-05-04 13:04 | 51.98274 | 7.09887 | 22181 ft | 359 kts | 304° |
| 2026-05-04 13:04 | 51.99801 | 7.06697 | 21772 ft | 357 kts | 304° |
| 2026-05-04 13:04 | 52.01317 | 7.03520 | 21369 ft | 355 kts | 304° |
| 2026-05-04 13:05 | 52.02820 | 7.00366 | 20968 ft | 352 kts | 303° |
| 2026-05-04 13:05 | 52.04311 | 6.97228 | 20569 ft | 350 kts | 303° |
| 2026-05-04 13:05 | 52.05794 | 6.94105 | 20172 ft | 348 kts | 303° |
| 2026-05-04 13:05 | 52.07269 | 6.90996 | 19777 ft | 346 kts | 303° |
| 2026-05-04 13:06 | 52.08730 | 6.87913 | 19388 ft | 344 kts | 304° |
| 2026-05-04 13:06 | 52.10192 | 6.84834 | 18997 ft | 342 kts | 304° |
| 2026-05-04 13:06 | 52.11598 | 6.81735 | 18606 ft | 339 kts | 300° |
| 2026-05-04 13:06 | 52.12813 | 6.78466 | 18213 ft | 336 kts | 296° |
| 2026-05-04 13:07 | 52.14035 | 6.75219 | 17849 ft | 336 kts | 301° |
| 2026-05-04 13:07 | 52.15421 | 6.72171 | 17567 ft | 336 kts | 304° |
| 2026-05-04 13:07 | 52.16869 | 6.69167 | 17279 ft | 339 kts | 305° |
| 2026-05-04 13:07 | 52.18334 | 6.66147 | 16986 ft | 342 kts | 305° |
| 2026-05-04 13:08 | 52.19811 | 6.63102 | 16688 ft | 341 kts | 305° |
| 2026-05-04 13:08 | 52.21278 | 6.60075 | 16392 ft | 340 kts | 305° |
| 2026-05-04 13:08 | 52.22735 | 6.57064 | 16093 ft | 338 kts | 305° |
| 2026-05-04 13:08 | 52.24188 | 6.54060 | 15793 ft | 336 kts | 305° |
| 2026-05-04 13:09 | 52.25632 | 6.51072 | 15497 ft | 335 kts | 305° |
| 2026-05-04 13:09 | 52.27070 | 6.48092 | 15205 ft | 334 kts | 305° |
| 2026-05-04 13:09 | 52.28504 | 6.45119 | 14916 ft | 332 kts | 305° |
| 2026-05-04 13:09 | 52.29947 | 6.42184 | 14625 ft | 331 kts | 306° |
| 2026-05-04 13:10 | 52.31387 | 6.39264 | 14337 ft | 329 kts | 306° |
| 2026-05-04 13:10 | 52.32813 | 6.36343 | 14051 ft | 328 kts | 306° |
| 2026-05-04 13:10 | 52.34225 | 6.33434 | 13766 ft | 327 kts | 306° |
| 2026-05-04 13:10 | 52.35633 | 6.30517 | 13483 ft | 326 kts | 306° |
| 2026-05-04 13:11 | 52.37030 | 6.27612 | 13200 ft | 324 kts | 306° |
| 2026-05-04 13:11 | 52.38417 | 6.24723 | 12919 ft | 323 kts | 306° |
| 2026-05-04 13:11 | 52.39799 | 6.21830 | 12639 ft | 321 kts | 306° |
| 2026-05-04 13:11 | 52.41172 | 6.18953 | 12360 ft | 320 kts | 306° |
| 2026-05-04 13:12 | 52.42544 | 6.16074 | 12080 ft | 319 kts | 306° |
| 2026-05-04 13:12 | 52.43906 | 6.13213 | 11803 ft | 318 kts | 306° |
| 2026-05-04 13:12 | 52.45262 | 6.10363 | 11527 ft | 316 kts | 306° |
| 2026-05-04 13:12 | 52.46595 | 6.07563 | 11253 ft | 306 kts | 306° |
| 2026-05-04 13:13 | 52.47865 | 6.04837 | 10989 ft | 296 kts | 301° |
| 2026-05-04 13:13 | 52.48509 | 6.02898 | 10820 ft | 290 kts | 291° |
| 2026-05-04 13:13 | 52.49054 | 5.99759 | 10566 ft | 284 kts | 279° |
| 2026-05-04 13:13 | 52.49343 | 5.96579 | 10316 ft | 280 kts | 275° |
| 2026-05-04 13:14 | 52.49527 | 5.93383 | 10073 ft | 282 kts | 273° |
| 2026-05-04 13:14 | 52.49673 | 5.90161 | 9831 ft | 284 kts | 273° |
| 2026-05-04 13:14 | 52.49818 | 5.86903 | 9584 ft | 287 kts | 273° |
| 2026-05-04 13:14 | 52.49962 | 5.83637 | 9331 ft | 287 kts | 273° |
| 2026-05-04 13:15 | 52.50105 | 5.80377 | 9078 ft | 285 kts | 273° |
| 2026-05-04 13:15 | 52.50246 | 5.77149 | 8830 ft | 283 kts | 273° |
| 2026-05-04 13:15 | 52.50385 | 5.73938 | 8585 ft | 281 kts | 273° |
| 2026-05-04 13:15 | 52.50523 | 5.70744 | 8342 ft | 280 kts | 273° |
| 2026-05-04 13:16 | 52.50661 | 5.67564 | 8098 ft | 279 kts | 273° |
| 2026-05-04 13:16 | 52.50798 | 5.64388 | 7856 ft | 278 kts | 273° |
| 2026-05-04 13:16 | 52.50936 | 5.61222 | 7613 ft | 277 kts | 273° |
| 2026-05-04 13:16 | 52.50930 | 5.58083 | 7367 ft | 275 kts | 261° |
| 2026-05-04 13:17 | 52.50388 | 5.55101 | 7054 ft | 270 kts | 248° |
| 2026-05-04 13:17 | 52.49641 | 5.52293 | 6846 ft | 268 kts | 245° |
| 2026-05-04 13:17 | 52.48812 | 5.49538 | 6637 ft | 271 kts | 243° |
| 2026-05-04 13:17 | 52.47933 | 5.46767 | 6407 ft | 275 kts | 242° |
| 2026-05-04 13:18 | 52.47046 | 5.43987 | 6171 ft | 274 kts | 242° |
| 2026-05-04 13:18 | 52.46163 | 5.41232 | 5935 ft | 272 kts | 242° |
| 2026-05-04 13:18 | 52.45282 | 5.38502 | 5700 ft | 270 kts | 241° |
| 2026-05-04 13:18 | 52.44319 | 5.35878 | 5466 ft | 268 kts | 237° |
| 2026-05-04 13:19 | 52.43300 | 5.33316 | 5233 ft | 268 kts | 237° |
| 2026-05-04 13:19 | 52.42284 | 5.30765 | 5001 ft | 267 kts | 237° |
| 2026-05-04 13:19 | 52.41270 | 5.28223 | 4770 ft | 267 kts | 237° |
| 2026-05-04 13:19 | 52.40259 | 5.25689 | 4540 ft | 265 kts | 237° |
| 2026-05-04 13:20 | 52.39259 | 5.23188 | 4313 ft | 260 kts | 237° |
| 2026-05-04 13:20 | 52.38272 | 5.20722 | 4090 ft | 256 kts | 237° |
| 2026-05-04 13:20 | 52.37305 | 5.18304 | 3869 ft | 251 kts | 237° |
| 2026-05-04 13:20 | 52.36366 | 5.15959 | 3656 ft | 241 kts | 237° |
| 2026-05-04 13:21 | 52.35460 | 5.13700 | 3465 ft | 235 kts | 237° |
| 2026-05-04 13:21 | 52.34577 | 5.11502 | 3313 ft | 228 kts | 237° |
| 2026-05-04 13:21 | 52.33713 | 5.09353 | 3147 ft | 226 kts | 237° |
| 2026-05-04 13:21 | 52.32886 | 5.07184 | 2975 ft | 224 kts | 245° |
| 2026-05-04 13:22 | 52.32553 | 5.04709 | 2661 ft | 225 kts | 268° |
| 2026-05-04 13:22 | 52.32551 | 5.02185 | 2473 ft | 219 kts | 269° |
| 2026-05-04 13:22 | 52.32505 | 4.99732 | 2261 ft | 212 kts | 268° |
| 2026-05-04 13:22 | 52.32437 | 4.97403 | 2083 ft | 198 kts | 267° |
| 2026-05-04 13:23 | 52.32365 | 4.95214 | 1845 ft | 187 kts | 267° |
| 2026-05-04 13:23 | 52.32295 | 4.93140 | 1606 ft | 179 kts | 267° |
| 2026-05-04 13:23 | 52.32227 | 4.91130 | 1375 ft | 174 kts | 268° |
| 2026-05-04 13:23 | 52.32161 | 4.89210 | 1157 ft | 166 kts | 268° |
| 2026-05-04 13:24 | 52.32099 | 4.87384 | 955 ft | 157 kts | 268° |
| 2026-05-04 13:24 | 52.32038 | 4.85625 | 734 ft | 153 kts | 268° |
| 2026-05-04 13:24 | 52.31979 | 4.83905 | 524 ft | 151 kts | 268° |
| 2026-05-04 13:25 | 52.31865 | 4.80544 | 157 ft | 147 kts | 268° |
| 2026-05-04 13:25 | 52.31809 | 4.78898 | 14 ft | 142 kts | 268° |
| 2026-05-04 13:25 | 52.31760 | 4.77567 | 13 ft | 60 kts | 270° |
| 2026-05-04 13:25 | 52.31748 | 4.77199 | 13 ft | 29 kts | 266° |
| 2026-05-04 13:26 | 52.31697 | 4.76911 | 13 ft | 24 kts | 240° |
| 2026-05-04 13:26 | 52.31628 | 4.76737 | 13 ft | 13 kts | 236° |
| 2026-05-04 13:26 | 52.31588 | 4.76636 | 13 ft | 9 kts | 237° |
| 2026-05-04 13:26 | 52.31551 | 4.76554 | 13 ft | 10 kts | 227° |
| 2026-05-04 13:27 | 52.31485 | 4.76488 | 13 ft | 10 kts | 167° |
| 2026-05-04 13:27 | 52.31464 | 4.76559 | 13 ft | 8 kts | 90° |
| 2026-05-04 13:27 | 52.31469 | 4.76666 | 13 ft | 10 kts | 85° |
| 2026-05-04 13:27 | 52.31474 | 4.76769 | 13 ft | 11 kts | 86° |
| 2026-05-04 13:28 | 52.31479 | 4.76922 | 13 ft | 13 kts | 86° |
| 2026-05-04 13:28 | 52.31483 | 4.77060 | 13 ft | 12 kts | 89° |
| 2026-05-04 13:28 | 52.31454 | 4.77203 | 13 ft | 14 kts | 128° |
| 2026-05-04 13:28 | 52.31403 | 4.77303 | 13 ft | 10 kts | 130° |
| 2026-05-04 13:29 | 52.31350 | 4.77404 | 13 ft | 15 kts | 130° |
| 2026-05-04 13:29 | 52.31249 | 4.77502 | 13 ft | 17 kts | 175° |
| 2026-05-04 13:29 | 52.31143 | 4.77495 | 13 ft | 16 kts | 183° |
| 2026-05-04 13:29 | 52.31039 | 4.77488 | 13 ft | 13 kts | 182° |
| 2026-05-04 13:30 | 52.30938 | 4.77478 | 13 ft | 14 kts | 184° |
| 2026-05-04 13:30 | 52.30862 | 4.77456 | 13 ft | 8 kts | 226° |
| 2026-05-04 13:30 | 52.30853 | 4.77393 | 13 ft | 5 kts | 271° |
| 2026-05-04 13:30 | 52.30854 | 4.77340 | 13 ft | 4 kts | 270° |
| 2026-05-04 13:31 | 52.30865 | 4.77319 | 13 ft | 1 kts | 354° |
| 2026-05-04 13:31 | 52.30890 | 4.77318 | 13 ft | 0 kts | 1° |